createdAt,value
2019-04-07T00:01:42.662Z,91.60
2019-04-07T00:04:12.502Z,91.60
2019-04-07T00:06:42.871Z,91.60
2019-04-07T00:09:13.037Z,91.60
2019-04-07T00:11:43.102Z,91.40
2019-04-07T00:14:12.985Z,91.60
2019-04-07T00:16:44.922Z,91.20
2019-04-07T00:19:15.563Z,91.10
2019-04-07T00:21:45.653Z,91.20
2019-04-07T00:24:15.423Z,91.50
2019-04-07T00:26:45.276Z,91.20
2019-04-07T00:29:15.813Z,91.40
2019-04-07T00:31:45.475Z,91.20
2019-04-07T00:34:15.430Z,91.40
2019-04-07T00:36:45.142Z,91.50
2019-04-07T00:39:15.119Z,92.00
2019-04-07T00:41:45.397Z,91.70
2019-04-07T00:44:14.942Z,92.20
2019-04-07T00:46:44.888Z,91.80
2019-04-07T00:49:14.885Z,92.10
2019-04-07T00:51:44.741Z,91.60
2019-04-07T00:54:15.116Z,91.60
2019-04-07T00:56:45.497Z,91.60
2019-04-07T00:59:15.438Z,91.80
2019-04-07T01:01:45.947Z,92.20
2019-04-07T01:04:15.519Z,92.50
2019-04-07T01:06:45.416Z,92.70
2019-04-07T01:09:15.684Z,93.00
2019-04-07T01:11:45.453Z,93.40
2019-04-07T01:14:15.199Z,93.40
2019-04-07T01:16:45.644Z,93.90
2019-04-07T01:19:15.647Z,93.40
2019-04-07T01:21:45.761Z,93.20
2019-04-07T01:24:15.994Z,93.20
2019-04-07T01:26:45.769Z,93.20
2019-04-07T01:29:15.666Z,92.80
2019-04-07T01:31:45.493Z,92.80
2019-04-07T01:34:15.972Z,92.30
2019-04-07T01:36:46.155Z,92.10
2019-04-07T01:39:16.890Z,92.20
2019-04-07T01:42:09.109Z,92.20
2019-04-07T01:44:47.233Z,92.00
2019-04-07T01:47:35.397Z,92.10
2019-04-07T01:50:31.310Z,92.10
2019-04-07T01:53:12.546Z,92.00
2019-04-07T01:56:01.810Z,92.30
2019-04-07T01:58:53.766Z,92.30
2019-04-07T02:01:55.051Z,92.00
2019-04-07T02:04:41.690Z,91.90
2019-04-07T02:07:30.044Z,91.80
2019-04-07T02:10:22.105Z,91.80
2019-04-07T02:13:09.886Z,92.00
2019-04-07T02:15:56.908Z,92.10
2019-04-07T02:18:45.440Z,92.40
2019-04-07T02:21:23.748Z,92.60
2019-04-07T02:24:21.359Z,92.50
2019-04-07T02:27:00.970Z,92.30
2019-04-07T02:29:54.190Z,92.30
2019-04-07T02:32:49.121Z,92.50
2019-04-07T02:35:50.438Z,92.70
2019-04-07T02:38:52.087Z,92.80
2019-04-07T02:41:59.041Z,93.10
2019-04-07T02:45:03.005Z,93.10
2019-04-07T02:47:51.264Z,93.30
2019-04-07T02:50:31.607Z,93.30
2019-04-07T02:53:26.760Z,93.70
2019-04-07T02:56:18.427Z,93.70
2019-04-07T02:58:56.897Z,93.70
2019-04-07T03:01:57.812Z,93.70
2019-04-07T03:04:46.045Z,93.70
2019-04-07T03:07:25.046Z,93.80
2019-04-07T03:10:18.774Z,94.00
2019-04-07T03:13:16.872Z,93.90
2019-04-07T03:16:21.068Z,94.10
2019-04-07T03:19:22.078Z,94.20
2019-04-07T03:22:01.166Z,94.20
2019-04-07T03:24:38.325Z,94.30
2019-04-07T03:27:17.854Z,94.20
2019-04-07T03:30:13.712Z,94.50
2019-04-07T03:33:05.181Z,94.70
2019-04-07T03:35:38.372Z,94.90
2019-04-07T03:38:27.421Z,94.80
2019-04-07T03:41:03.372Z,95.00
2019-04-07T03:43:46.542Z,95.00
2019-04-07T03:46:39.422Z,95.10
2019-04-07T03:49:27.769Z,95.30
2019-04-07T03:52:15.185Z,95.60
2019-04-07T03:55:05.037Z,95.70
2019-04-07T03:57:47.715Z,95.60
2019-04-07T04:01:16.284Z,95.70
2019-04-07T04:03:56.703Z,95.60
2019-04-07T04:06:46.027Z,95.60
2019-04-07T04:09:22.234Z,95.40
2019-04-07T04:11:57.612Z,95.20
2019-04-07T04:14:39.804Z,95.40
2019-04-07T04:17:09.565Z,95.30
2019-04-07T04:19:39.228Z,95.20
2019-04-07T04:22:09.137Z,95.20
2019-04-07T04:24:40.132Z,95.30
2019-04-07T04:27:10.807Z,95.40
2019-04-07T04:29:41.435Z,95.40
2019-04-07T04:32:11.502Z,95.50
2019-04-07T04:34:41.199Z,95.40
2019-04-07T04:37:11.163Z,95.40
2019-04-07T04:39:41.145Z,95.30
2019-04-07T04:42:11.482Z,95.40
2019-04-07T04:44:42.052Z,95.30
2019-04-07T04:47:12.485Z,95.40
2019-04-07T04:49:42.045Z,95.40
2019-04-07T04:52:11.769Z,95.50
2019-04-07T04:54:42.141Z,95.70
2019-04-07T04:57:13.092Z,95.80
2019-04-07T04:59:43.016Z,95.70
2019-04-07T05:02:13.165Z,96.00
2019-04-07T05:04:43.753Z,95.80
2019-04-07T05:07:14.227Z,95.90
2019-04-07T05:09:51.048Z,96.20
2019-04-07T05:12:16.292Z,96.10
2019-04-07T05:14:45.700Z,96.00
2019-04-07T05:17:15.355Z,96.10
2019-04-07T05:19:45.361Z,96.30
2019-04-07T05:22:15.270Z,96.20
2019-04-07T05:24:45.490Z,96.10
2019-04-07T05:27:15.072Z,96.40
2019-04-07T05:29:45.583Z,96.40
2019-04-07T05:32:15.784Z,96.40
2019-04-07T05:34:45.613Z,96.40
2019-04-07T05:37:15.440Z,96.30
2019-04-07T05:39:45.149Z,96.10
2019-04-07T05:42:15.721Z,96.20
2019-04-07T05:44:45.621Z,96.00
2019-04-07T05:47:18.239Z,95.80
2019-04-07T05:49:47.839Z,96.00
2019-04-07T05:52:18.090Z,95.70
2019-04-07T05:54:49.922Z,95.60
2019-04-07T05:57:19.703Z,95.80
2019-04-07T05:59:50.330Z,95.80
2019-04-07T06:02:20.314Z,95.90
2019-04-07T06:04:50.050Z,95.90
2019-04-07T06:07:20.269Z,95.60
2019-04-07T06:09:52.466Z,95.50
2019-04-07T06:12:21.602Z,95.30
2019-04-07T06:14:51.922Z,95.20
2019-04-07T06:17:25.647Z,95.60
2019-04-07T06:19:53.347Z,95.20
2019-04-07T06:22:23.638Z,95.20
2019-04-07T06:24:53.799Z,95.00
2019-04-07T06:27:23.955Z,95.00
2019-04-07T06:29:57.219Z,94.90
2019-04-07T06:32:34.679Z,94.80
2019-04-07T06:35:03.958Z,94.80
2019-04-07T06:37:33.499Z,94.70
2019-04-07T06:40:03.555Z,94.60
2019-04-07T06:42:34.322Z,94.90
2019-04-07T06:45:04.163Z,94.70
2019-04-07T06:47:49.763Z,94.80
2019-04-07T06:50:49.610Z,94.90
2019-04-07T06:53:40.333Z,94.60
2019-04-07T06:56:32.238Z,94.50
2019-04-07T06:59:20.840Z,94.40
2019-04-07T07:02:13.187Z,94.30
2019-04-07T07:05:08.350Z,94.00
2019-04-07T07:07:48.250Z,93.80
2019-04-07T07:10:41.882Z,93.90
2019-04-07T07:13:33.760Z,93.50
2019-04-07T07:16:21.705Z,93.90
2019-04-07T07:19:08.422Z,93.80
2019-04-07T07:22:11.755Z,93.60
2019-04-07T07:24:37.980Z,93.60
2019-04-07T07:27:10.106Z,93.50
2019-04-07T07:29:38.926Z,93.20
2019-04-07T07:32:08.618Z,93.00
2019-04-07T07:34:41.300Z,93.10
2019-04-07T07:37:09.535Z,93.10
2019-04-07T07:39:41.970Z,93.20
2019-04-07T07:42:10.552Z,93.30
2019-04-07T07:44:40.417Z,93.40
2019-04-07T07:47:10.354Z,93.40
2019-04-07T07:49:41.026Z,92.70
2019-04-07T07:52:11.620Z,91.50
2019-04-07T07:54:42.154Z,90.80
2019-04-07T07:57:13.377Z,90.30
2019-04-07T07:59:43.328Z,89.30
2019-04-07T08:02:17.519Z,88.20
2019-04-07T08:07:15.783Z,85.10
2019-04-07T08:09:45.089Z,83.80
2019-04-07T08:12:15.190Z,82.40
2019-04-07T08:14:49.732Z,95.80
2019-04-07T08:17:17.211Z,96.10
2019-04-07T08:19:46.745Z,96.50
2019-04-07T08:44:45.177Z,77.20
2019-04-07T08:47:20.709Z,77.70
2019-04-07T08:49:47.017Z,77.90
2019-04-07T08:52:17.403Z,77.40
2019-04-07T08:54:50.321Z,78.10
2019-04-07T08:57:18.433Z,78.20
2019-04-07T08:59:48.155Z,79.10
2019-04-07T09:02:19.235Z,78.20
2019-04-07T09:04:51.223Z,78.00
2019-04-07T09:07:23.322Z,78.00
2019-04-07T09:09:52.416Z,79.10
2019-04-07T09:12:22.889Z,79.30
2019-04-07T09:14:53.177Z,78.30
2019-04-07T09:17:46.049Z,77.60
2019-04-07T09:20:40.911Z,77.50
2019-04-07T09:23:17.572Z,77.50
2019-04-07T09:26:05.558Z,76.80
2019-04-07T09:28:40.165Z,77.20
2019-04-07T09:31:44.182Z,77.30
2019-04-07T09:34:32.700Z,77.60
2019-04-07T09:37:17.768Z,77.20
2019-04-07T09:40:10.452Z,75.90
2019-04-07T09:43:05.463Z,76.10
2019-04-07T09:45:57.273Z,76.50
2019-04-07T09:48:50.049Z,76.40
2019-04-07T09:51:41.234Z,75.90
2019-04-07T09:54:17.620Z,76.10
2019-04-07T09:57:09.645Z,75.00
2019-04-07T10:00:08.591Z,74.50
2019-04-07T10:03:07.735Z,75.60
2019-04-07T10:06:01.448Z,76.10
2019-04-07T10:08:56.119Z,75.90
2019-04-07T10:11:54.365Z,75.30
2019-04-07T10:14:31.836Z,75.80
2019-04-07T10:17:14.987Z,77.10
2019-04-07T10:20:02.338Z,76.90
2019-04-07T10:22:57.437Z,74.40
2019-04-07T10:25:36.951Z,74.70
2019-04-07T10:28:32.321Z,74.60
2019-04-07T10:31:20.757Z,72.40
2019-04-07T10:34:12.997Z,70.60
2019-04-07T10:37:09.039Z,69.10
2019-04-07T10:39:56.799Z,68.90
2019-04-07T10:42:44.797Z,69.10
2019-04-07T10:45:34.056Z,68.40
2019-04-07T10:48:31.716Z,68.50
2019-04-07T10:51:24.188Z,69.30
2019-04-07T10:54:19.943Z,70.60
2019-04-07T10:59:57.804Z,66.90
2019-04-07T11:02:52.765Z,70.00
2019-04-07T11:05:51.619Z,71.70
2019-04-07T11:08:46.610Z,70.20
2019-04-07T11:11:41.205Z,69.00
2019-04-07T11:14:18.460Z,67.90
2019-04-07T11:17:22.563Z,67.70
2019-04-07T11:20:10.412Z,66.30
2019-04-07T11:23:10.740Z,65.90
2019-04-07T11:25:53.753Z,65.30
2019-04-07T11:28:42.237Z,66.70
2019-04-07T11:31:19.649Z,67.60
2019-04-07T11:50:42.741Z,63.20
2019-04-07T11:53:30.061Z,66.10
2019-04-07T11:56:11.275Z,69.60
2019-04-07T11:58:50.741Z,69.80
2019-04-07T12:01:41.694Z,67.10
2019-04-07T12:04:36.403Z,67.80
2019-04-07T12:07:19.088Z,66.60
2019-04-07T12:10:24.758Z,63.90
2019-04-07T12:13:03.728Z,64.20
2019-04-07T12:15:51.196Z,64.20
2019-04-07T12:18:43.001Z,64.70
2019-04-07T12:21:38.579Z,63.90
2019-04-07T12:24:25.939Z,63.20
2019-04-07T12:27:11.670Z,64.00
2019-04-07T12:30:01.134Z,66.10
2019-04-07T12:32:40.270Z,67.20
2019-04-07T12:35:33.766Z,65.90
2019-04-07T12:38:26.433Z,66.40
2019-04-07T12:41:21.002Z,64.80
2019-04-07T12:51:57.416Z,61.80
2019-04-07T12:54:41.374Z,62.90
2019-04-07T12:57:36.414Z,64.50
2019-04-07T13:00:15.769Z,64.30
2019-04-07T13:03:07.174Z,61.50
2019-04-07T13:08:28.587Z,60.40
2019-04-07T13:11:26.917Z,60.00
2019-04-07T13:14:10.317Z,61.90
2019-04-07T13:17:00.183Z,61.30
2019-04-07T13:39:48.561Z,58.60
2019-04-07T13:42:29.200Z,59.30
2019-04-07T13:45:17.848Z,57.20
2019-04-07T13:48:06.254Z,56.20
2019-04-07T13:50:45.955Z,56.20
2019-04-07T13:53:37.850Z,56.50
2019-04-07T13:56:15.703Z,57.00
2019-04-07T13:59:10.127Z,57.30
2019-04-07T14:01:55.488Z,58.20
2019-04-07T14:04:56.309Z,57.30
2019-04-07T14:07:49.187Z,56.60
2019-04-07T14:10:37.231Z,55.80
2019-04-07T14:13:25.640Z,56.60
2019-04-07T14:16:21.179Z,55.80
2019-04-07T14:19:16.682Z,56.40
2019-04-07T14:22:08.952Z,58.00
2019-04-07T14:24:43.642Z,61.00
2019-04-07T14:27:31.566Z,64.70
2019-04-07T14:30:38.198Z,66.10
2019-04-07T14:33:17.808Z,68.20
2019-04-07T14:36:15.121Z,70.20
2019-04-07T14:39:04.137Z,71.80
2019-04-07T14:42:03.275Z,71.80
2019-04-07T14:44:45.765Z,71.00
2019-04-07T14:47:37.092Z,70.20
2019-04-07T14:50:21.145Z,69.00
2019-04-07T14:52:59.809Z,68.80
2019-04-07T14:56:04.431Z,69.60
2019-04-07T14:58:53.741Z,69.90
2019-04-07T15:01:29.389Z,70.10
2019-04-07T15:03:58.919Z,70.70
2019-04-07T15:06:33.096Z,70.30
2019-04-07T15:09:34.936Z,70.70
2019-04-07T15:12:22.746Z,70.70
2019-04-07T15:14:48.109Z,70.50
2019-04-07T15:17:17.704Z,70.50
2019-04-07T15:19:47.386Z,70.70
2019-04-07T15:22:17.220Z,70.50
2019-04-07T15:24:47.754Z,71.10
2019-04-07T15:27:22.047Z,71.20
2019-04-07T15:29:49.190Z,71.80
2019-04-07T15:32:21.161Z,71.70
2019-04-07T15:34:49.891Z,71.60
2019-04-07T15:37:22.647Z,72.10
2019-04-07T15:39:51.690Z,71.90
2019-04-07T15:42:34.173Z,71.30
2019-04-07T15:44:52.527Z,70.70
2019-04-07T15:47:22.247Z,70.70
2019-04-07T15:49:52.799Z,71.00
2019-04-07T15:52:22.959Z,69.60
2019-04-07T15:54:53.689Z,69.90
2019-04-07T15:57:24.066Z,71.00
2019-04-07T15:59:54.084Z,72.00
2019-04-07T16:02:23.602Z,71.60
2019-04-07T16:04:53.019Z,72.80
2019-04-07T16:07:23.079Z,72.20
2019-04-07T16:09:56.325Z,73.90
2019-04-07T16:12:24.085Z,74.90
2019-04-07T16:14:54.660Z,73.50
2019-04-07T16:17:25.240Z,72.90
2019-04-07T16:19:55.828Z,73.10
2019-04-07T16:22:25.768Z,75.00
2019-04-07T16:24:56.348Z,76.90
2019-04-07T16:27:26.981Z,78.60
2019-04-07T16:29:56.959Z,79.20
2019-04-07T16:32:28.850Z,79.40
2019-04-07T16:34:58.368Z,79.40
2019-04-07T16:37:30.873Z,80.20
2019-04-07T16:40:03.302Z,80.50
2019-04-07T16:42:32.065Z,81.00
2019-04-07T16:45:02.276Z,81.00
2019-04-07T16:47:34.699Z,80.60
2019-04-07T16:50:03.759Z,80.90
2019-04-07T16:52:34.346Z,81.40
2019-04-07T16:55:06.235Z,81.60
2019-04-07T16:57:37.584Z,81.60
2019-04-07T17:00:10.860Z,81.80
2019-04-07T17:02:41.242Z,81.60
2019-04-07T17:05:10.965Z,81.20
2019-04-07T17:07:44.311Z,81.60
2019-04-07T17:10:13.195Z,81.50
2019-04-07T17:12:43.921Z,81.60
2019-04-07T17:15:13.651Z,81.90
2019-04-07T17:17:43.497Z,82.30
2019-04-07T17:20:13.585Z,80.70
2019-04-07T17:22:47.719Z,80.50
2019-04-07T17:25:15.350Z,80.60
2019-04-07T17:27:45.383Z,80.80
2019-04-07T17:30:16.805Z,81.40
2019-04-07T17:32:46.947Z,82.10
2019-04-07T17:35:18.557Z,82.90
2019-04-07T17:37:49.379Z,83.00
2019-04-07T17:40:21.505Z,83.40
2019-04-07T17:42:53.084Z,83.30
2019-04-07T17:45:41.914Z,83.30
2019-04-07T17:48:44.928Z,83.40
2019-04-07T17:51:28.691Z,83.90
2019-04-07T17:54:32.518Z,85.00
2019-04-07T17:57:30.287Z,84.50
2019-04-07T18:00:36.221Z,84.90
2019-04-07T18:03:25.554Z,85.60
2019-04-07T18:06:14.888Z,86.00
2019-04-07T18:09:09.162Z,85.90
2019-04-07T18:11:41.854Z,86.40
2019-04-07T18:14:33.878Z,86.90
2019-04-07T18:17:31.514Z,86.90
2019-04-07T18:20:15.871Z,86.60
2019-04-07T18:23:07.490Z,86.50
2019-04-07T18:25:53.195Z,86.80
2019-04-07T18:28:32.552Z,87.20
2019-04-07T18:31:19.982Z,87.10
2019-04-07T18:34:07.877Z,87.20
2019-04-07T18:37:02.081Z,87.10
2019-04-07T18:39:56.504Z,87.00
2019-04-07T18:42:47.857Z,86.90
2019-04-07T18:45:38.431Z,86.60
2019-04-07T18:48:37.003Z,86.90
2019-04-07T18:51:16.257Z,87.10
2019-04-07T18:54:02.632Z,87.10
2019-04-07T18:56:59.194Z,87.30
2019-04-07T18:59:39.920Z,87.30
2019-04-07T19:02:46.057Z,87.40
2019-04-07T19:05:20.991Z,87.70
2019-04-07T19:08:17.512Z,88.20
2019-04-07T19:11:12.336Z,88.50
2019-04-07T19:13:42.655Z,89.00
2019-04-07T19:16:40.050Z,89.30
2019-04-07T19:19:44.193Z,90.00
2019-04-07T19:22:35.242Z,90.30
2019-04-07T19:25:33.425Z,90.40
2019-04-07T19:28:25.177Z,90.40
2019-04-07T19:31:16.884Z,90.30
2019-04-07T19:34:20.509Z,90.10
2019-04-07T19:37:00.434Z,90.10
2019-04-07T19:39:47.752Z,90.20
2019-04-07T19:42:45.885Z,90.10
2019-04-07T19:45:31.101Z,90.10
2019-04-07T19:48:11.465Z,90.00
2019-04-07T19:50:59.946Z,89.90
2019-04-07T19:53:52.212Z,90.00
2019-04-07T19:56:59.264Z,90.00
2019-04-07T19:59:39.337Z,90.10
2019-04-07T20:02:35.768Z,90.30
2019-04-07T20:05:39.460Z,90.50
2019-04-07T20:08:21.463Z,90.70
2019-04-07T20:11:03.131Z,90.70
2019-04-07T20:13:56.189Z,91.10
2019-04-07T20:16:34.793Z,90.90
2019-04-07T20:19:18.738Z,91.00
2019-04-07T20:22:00.495Z,91.20
2019-04-07T20:24:54.996Z,91.30
2019-04-07T20:27:49.696Z,91.70
2019-04-07T20:30:41.077Z,91.50
2019-04-07T20:33:32.381Z,91.70
2019-04-07T20:36:15.110Z,91.70
2019-04-07T20:38:50.069Z,91.80
2019-04-07T20:41:44.862Z,91.90
2019-04-07T20:44:37.072Z,92.20
2019-04-07T20:47:28.397Z,92.10
2019-04-07T20:50:16.428Z,92.20
2019-04-07T20:53:08.613Z,92.30
2019-04-07T20:55:37.321Z,92.40
2019-04-07T20:58:25.416Z,92.50
2019-04-07T21:01:16.614Z,92.60
2019-04-07T21:04:04.600Z,92.70
2019-04-07T21:07:05.428Z,92.90
2019-04-07T21:09:41.761Z,93.00
2019-04-07T21:12:31.150Z,93.20
2019-04-07T21:15:29.810Z,93.20
2019-04-07T21:18:14.727Z,93.20
2019-04-07T21:21:11.817Z,93.30
2019-04-07T21:24:01.685Z,93.30
2019-04-07T21:26:45.575Z,93.20
2019-04-07T21:29:26.768Z,93.20
2019-04-07T21:32:22.727Z,93.30
2019-04-07T21:35:03.092Z,93.40
2019-04-07T21:37:55.096Z,93.50
2019-04-07T21:40:46.790Z,93.60
2019-04-07T21:43:50.822Z,94.00
2019-04-07T21:46:39.726Z,93.90
2019-04-07T21:49:27.834Z,94.00
2019-04-07T21:52:22.217Z,94.00
2019-04-07T21:55:13.635Z,94.10
2019-04-07T21:58:02.734Z,94.20
2019-04-07T22:01:05.263Z,94.10
2019-04-07T22:03:54.803Z,94.20
2019-04-07T22:06:43.453Z,94.20
2019-04-07T22:09:20.629Z,94.20
2019-04-07T22:11:51.531Z,94.10
2019-04-07T22:14:22.851Z,94.10
2019-04-07T22:16:52.639Z,94.30
2019-04-07T22:19:22.712Z,94.10
2019-04-07T22:21:54.996Z,94.00
2019-04-07T22:24:23.965Z,93.90
2019-04-07T22:26:53.652Z,93.90
2019-04-07T22:29:24.478Z,93.80
2019-04-07T22:31:56.423Z,93.80
2019-04-07T22:34:29.853Z,93.70
2019-04-07T22:36:57.901Z,93.70
2019-04-07T22:39:28.910Z,93.70
2019-04-07T22:41:58.711Z,93.80
2019-04-07T22:44:28.189Z,93.70
2019-04-07T22:46:58.608Z,93.70
2019-04-07T22:49:30.839Z,93.60
2019-04-07T22:51:59.573Z,93.70
2019-04-07T22:54:30.958Z,93.70
2019-04-07T22:57:00.701Z,93.70
2019-04-07T22:59:30.408Z,93.70
2019-04-07T23:02:00.423Z,93.80
2019-04-07T23:04:30.364Z,94.00
2019-04-07T23:07:00.827Z,94.10
2019-04-07T23:09:31.359Z,94.00
2019-04-07T23:12:02.211Z,93.90
2019-04-07T23:14:33.799Z,93.80
2019-04-07T23:17:03.683Z,93.80
2019-04-07T23:19:33.218Z,93.90
2019-04-07T23:22:03.231Z,93.90
2019-04-07T23:24:33.027Z,93.90
2019-04-07T23:27:02.852Z,93.90
2019-04-07T23:29:32.480Z,93.80
2019-04-07T23:32:02.054Z,93.90
2019-04-07T23:34:31.635Z,94.10
2019-04-07T23:37:01.806Z,94.50
2019-04-07T23:39:31.727Z,94.80
2019-04-07T23:42:01.224Z,95.10
2019-04-07T23:44:31.747Z,95.20
2019-04-07T23:47:01.246Z,95.30
2019-04-07T23:49:30.743Z,95.30
2019-04-07T23:52:00.764Z,95.40
2019-04-07T23:54:31.007Z,95.40
2019-04-07T23:57:00.917Z,95.40
2019-04-07T23:59:30.577Z,95.40
